METAR Data
IDs: Format: Raw Decoded Include TAF

Data at: 1059 UTC 16 Feb 2019

PAMY 161056Z AUTO 19019KT 4SM BR CLR M03/M04 A2973 RMK AO2 SNE18 SLP071 P0000 T10331039 FZRANO $
PAMY 161015Z AUTO 19017KT 4SM -SN BR CLR M03/M03 A2971 RMK AO2 P0000 FZRANO $
PAMY 160956Z AUTO 19020KT 2SM -SN BR CLR M03/M03 A2971 RMK AO2 SNB28 SLP063 P0000 T10281033 FZRANO $
PAMY 160954Z AUTO 19019KT 2SM -SN BR CLR M03/M03 A2971 RMK AO2 SNB28 P0000 FZRANO $
PAMY 160945Z AUTO 20020KT 1 3/4SM -SN BR CLR M03/M03 A2971 RMK AO2 SNB28 P0000 FZRANO $
PAMY 160936Z AUTO 20020KT 2SM -SN BR CLR M03/M03 A2970 RMK AO2 SNB28 P0000 FZRANO $
PAMY 160856Z AUTO 18017KT 7SM FEW055 M03/M03 A2969 RMK AO2 SLP055 60000 T10281033 400061067 53018 FZRANO $
PAMY 160756Z AUTO 19017KT 6SM BR CLR M03/M03 A2967 RMK AO2 SLP049 T10281033 FZRANO $
PAMY 160656Z AUTO 19018KT 6SM BR CLR M03/M03 A2965 RMK AO2 SNE0558 SLP042 P0000 T10281033 FZRANO $
PAMY 160556Z AUTO 20018KT 5SM -SN BR CLR M02/M03 A2963 RMK AO2 UPB40E46SNB26E40B49 SLP037 P0000 60000 T10221028 10006 21028 53020 FZRANO $
PAMY 160456Z AUTO 20018KT 6SM BR CLR M02/M02 A2961 RMK AO2 SLP030 T10221022 FZRANO $
PAMY 160356Z AUTO 20018KT 6SM BR CLR M03/M03 A2959 RMK AO2 SLP023 T10281028 FZRANO $
PAMY 160256Z AUTO 19018KT 6SM BR CLR M01/M02 A2958 RMK AO2 SLP017 T10111017 53014 FZRANO $
PAMY 160156Z AUTO 19017KT 6SM BR CLR 01/00 A2955 RMK AO2 SLP010 T00060000 FZRANO $
PAMY 160056Z AUTO 18015KT 7SM CLR 00/00 A2955 RMK AO2 SLP009 T00000000 FZRANO $
PAMY 152327Z AUTO 15019KT 5SM UP BR OVC027 M01/M01 A2954 RMK AO2 PK WND 16027/2304 UPB00SNE00 P0000 FZRANO $
PAMY 152317Z AUTO 15022KT 2SM UP BR BKN029 OVC033 M01/M01 A2954 RMK AO2 PK WND 16027/2304 UPB00SNE00 P0000 FZRANO $
PAMY 152306Z AUTO 16023KT 1SM UP BR BKN029 OVC037 M01/M01 A2954 RMK AO2 PK WND 16027/2304 UPB00SNE00 P0000 FZRANO $
PAMY 152256Z AUTO 15024KT 3/4SM -SN BR FEW011 BKN031 OVC046 M01/M01 A2954 RMK AO2 PK WND 15038/2220 SLP004 P0001 T10111011 FZRANO $
PAMY 152245Z AUTO 15024KT 1/2SM -SN FZFG SCT011 BKN033 OVC048 M02/M02 A2954 RMK AO2 PK WND 15038/2220 P0001 FZRANO $
PAMY 152156Z AUTO 1/4SM +SN FZFG OVC011 M02/M02 A2954 RMK AO2 CIG 007V012 SLP004 P0000 T10221022 FZRANO $
PAMY 152113Z AUTO M1/4SM +SN FZFG BKN011 OVC017 M02/M03 A2953 RMK AO2 P0000 FZRANO $
PAMY 152105Z AUTO M1/4SM +SN FZFG SCT009 OVC015 M03/M03 A2953 RMK AO2 P0000 FZRANO $
PAMY 152056Z AUTO 1/4SM +SN FZFG BKN009 OVC016 M03/M03 A2953 RMK AO2 CIG 007V012 SLP002 P0000 60000 T10281028 58022 FZRANO $
PAMY 151956Z AUTO M1/4SM +SN FZFG OVC007 M02/M03 A2954 RMK AO2 SLP006 P0000 T10221028 FZRANO $
PAMY 151756Z AUTO 12032G36KT 1/4SM +SN FZFG OVC007 M02/M03 A2959 RMK AO2 PK WND 13039/1658 CIG 006V011 SLP024 P0000 60000 T10221028 11017 21044 58041 FZRANO $
PAMY 151748Z AUTO 12031KT 1/4SM +SN FZFG OVC007 M02/M03 A2960 RMK AO2 PK WND 13039/1658 CIG 005V011 P0000 FZRANO $
PAMY 151656Z AUTO 13031G38KT 1/4SM +SN FZFG OVC005 M02/M02 A2964 RMK AO2 PK WND 13040/1644 SLP041 P0000 T10221022 FZRANO $
PAMY 151556Z AUTO 13031G36KT 1/4SM SN FZFG OVC005 M02/M02 A2968 RMK AO2 PK WND 13036/1553 SLP052 P0000 T10171017 FZRANO $
PAMY 151456Z AUTO 13032KT 1/4SM SN FZFG OVC003 M02/M02 A2972 RMK AO2 PK WND 13035/1456 UPB04E21SNE04B21 SLP065 P0000 60000 T10171017 55026 FZRANO $
PAMY 151423Z AUTO 13026KT 1/2SM -SN FZFG OVC003 M02/M02 A2974 RMK AO2 PK WND 13030/1422 UPB04E21SNE04B21 P0000 FZRANO $
PAMY 151356Z AUTO 12019KT 1SM -SN BR VV003 M02/M02 A2976 RMK AO2 SNE00B18 SLP078 P0000 T10221022 FZRANO $
PAMY 151348Z AUTO 12019KT 1 1/4SM -SN BR CLR M02/M03 A2976 RMK AO2 SNE00B18 P0000 FZRANO $
PAMY 151335Z AUTO 12016KT 3/4SM -SN BR CLR M03/M03 A2976 RMK AO2 SNE00B18 P0000 FZRANO $
PAMY 151327Z AUTO 12016KT 1 3/4SM -SN BR CLR M03/M04 A2977 RMK AO2 SNE00B18 P0000 FZRANO $
PAMY 151256Z AUTO 13013KT 7SM -SN CLR M04/M04 A2979 RMK AO2 SNB39 SLP091 P0000 T10391044 FZRANO $
PAMY 151156Z AUTO 17016KT 10SM CLR M04/M04 A2984 RMK AO2 SNB27E39 SLP105 P0000 60000 T10391039 11033 21067 58018 FZRANO $
PAMY 151135Z AUTO 17014KT 3SM -SN BR CLR M04/M05 A2984 RMK AO2 SNB27 P0000 FZRANO $
PAMY 151128Z AUTO 17011KT 1 3/4SM -SN BR CLR M04/M05 A2984 RMK AO2 SNB27 P0000 FZRANO $
PAMY 151056Z AUTO 18014KT 7SM CLR M05/M06 A2986 RMK AO2 SNB35E45 SLP112 P0000 T10501056 FZRANO $
PAMY 150956Z AUTO 17013KT 10SM CLR M06/M06 A2988 RMK AO2 SLP120 T10561061 FZRANO $
PAMY 150856Z AUTO 17010KT 7SM CLR M06/M06 A2989 RMK AO2 SLP124 T10561061 400111117 53008 FZRANO $
PAMY 150656Z AUTO 19012KT 8SM CLR M04/M04 A2987 RMK AO2 SLP118 T10391044 FZRANO $
PAMY 150556Z AUTO 18011KT 10SM CLR M04/M05 A2987 RMK AO2 SLP116 60000 T10441050 10011 21050 51014 FZRANO $
PAMY 150356Z AUTO 22014KT 8SM CLR M03/M04 A2985 RMK AO2 SLP110 T10331039 FZRANO $
PAMY 150256Z AUTO 22013KT 5SM BR SCT044 M01/M02 A2982 RMK AO2 SNE09 SLP101 P0000 60000 T10111017 53018 FZRANO $
PAMY 150234Z AUTO 22013KT 5SM BR FEW018 SCT025 OVC046 M01/M01 A2981 RMK AO2 SNE09 P0000 FZRANO $
PAMY 150206Z AUTO 22013KT 3SM -SN BR BKN023 OVC041 00/00 A2980 RMK AO2 P0000 FZRANO $
PAMY 150156Z AUTO 21015KT 2 1/2SM -SN BR FEW019 BKN025 BKN038 M01/M01 A2980 RMK AO2 VIS 1 1/4V5 UPB39E41SNB41 SLP095 P0000 T10061006 FZRANO $
PAMY 150154Z AUTO 21015KT 2 1/2SM -SN BR FEW019 BKN025 BKN038 M01/M01 A2980 RMK AO2 UPB39E41SNB41 P0000 FZRANO $
PAMY 150148Z AUTO 21017KT 1 3/4SM -SN BR FEW023 SCT034 BKN049 M01/M01 A2980 RMK AO2 VIS 1V2 1/2 UPB39E41SNB41 P0000 FZRANO $
PAMY 150022Z AUTO 22014KT 5SM BR SCT025 01/01 A2978 RMK AO2 RAE12 P0000 FZRANO $
PAMY 142347Z AUTO 22015KT 6SM -RA BR BKN003 BKN022 OVC027 01/01 A2977 RMK AO2 RAB47 P0000 FZRANO $
PAMY 142320Z AUTO 22016KT 4SM BR BKN005 OVC019 01/01 A2976 RMK AO2 FZRANO $
PAMY 142311Z AUTO 23016KT 5SM BR SCT005 OVC019 01/01 A2976 RMK AO2 FZRANO $